College Place, Washington
Current Conditions -  °F | °C
As of 5:40 PM on Thursday 18 Dec 2014 (Local Time) from KALW Reporting Station
Moderate Fog Moderate Fog  
Wind Chill: 39°   Ceiling: 400
Heat Index: 39°   Visibility: 0.25mi
Dew Point: 38°   Wind: 3mph
Humidity: 96%   Direction: 210°SSW
Pressure: 29.94"   Gusts: NA
Location:  46.03°N, 118.38°W
Report Text: KALW 190140Z 21003KT 1/4SM R20/1400V2000FT FG VV004 04/03 A2994 RMK AO2 T00390033
Loading
Personal Weather Stations






























Interactive Weather Map New forecast layout! Learn more

10-Day Weather Forecast

Advertisements
Track Severe Weather on mobile